sensor_id;sensor_type;location;lat;lon;timestamp;P1;durP1;ratioP1;P2;durP2;ratioP2
56171;SDS011;42052;41.634;-0.946;2023-07-02T00:01:50;1.10;;;0.80;;
56171;SDS011;42052;41.634;-0.946;2023-07-02T00:04:36;1.63;;;0.80;;
56171;SDS011;42052;41.634;-0.946;2023-07-02T00:07:22;1.42;;;1.00;;
56171;SDS011;42052;41.634;-0.946;2023-07-02T00:10:11;1.45;;;0.80;;
56171;SDS011;42052;41.634;-0.946;2023-07-02T00:12:57;1.23;;;0.90;;
56171;SDS011;42052;41.634;-0.946;2023-07-02T00:15:43;1.98;;;0.85;;
56171;SDS011;42052;41.634;-0.946;2023-07-02T00:18:29;1.75;;;0.88;;
56171;SDS011;42052;41.634;-0.946;2023-07-02T00:21:19;1.48;;;0.90;;
56171;SDS011;42052;41.634;-0.946;2023-07-02T00:24:06;1.48;;;0.90;;
56171;SDS011;42052;41.634;-0.946;2023-07-02T00:26:54;1.67;;;0.88;;
56171;SDS011;42052;41.634;-0.946;2023-07-02T00:29:40;1.45;;;1.02;;
56171;SDS011;42052;41.634;-0.946;2023-07-02T00:32:27;2.05;;;1.00;;
56171;SDS011;42052;41.634;-0.946;2023-07-02T00:35:13;1.42;;;0.90;;
56171;SDS011;42052;41.634;-0.946;2023-07-02T00:37:59;1.95;;;1.00;;
56171;SDS011;42052;41.634;-0.946;2023-07-02T00:40:45;2.03;;;0.90;;
56171;SDS011;42052;41.634;-0.946;2023-07-02T00:43:31;1.30;;;0.90;;
56171;SDS011;42052;41.634;-0.946;2023-07-02T00:46:17;1.52;;;0.90;;
56171;SDS011;42052;41.634;-0.946;2023-07-02T00:49:07;2.58;;;1.00;;
56171;SDS011;42052;41.634;-0.946;2023-07-02T00:51:54;2.85;;;1.08;;
56171;SDS011;42052;41.634;-0.946;2023-07-02T00:54:41;2.40;;;1.20;;
56171;SDS011;42052;41.634;-0.946;2023-07-02T00:57:27;2.17;;;1.00;;
56171;SDS011;42052;41.634;-0.946;2023-07-02T01:00:15;1.55;;;1.08;;
56171;SDS011;42052;41.634;-0.946;2023-07-02T01:03:01;1.90;;;1.00;;
56171;SDS011;42052;41.634;-0.946;2023-07-02T01:05:47;1.20;;;0.90;;
56171;SDS011;42052;41.634;-0.946;2023-07-02T01:08:34;1.30;;;0.93;;
56171;SDS011;42052;41.634;-0.946;2023-07-02T01:11:20;1.55;;;1.00;;
56171;SDS011;42052;41.634;-0.946;2023-07-02T01:14:10;1.23;;;0.88;;
56171;SDS011;42052;41.634;-0.946;2023-07-02T01:16:57;1.20;;;0.80;;
56171;SDS011;42052;41.634;-0.946;2023-07-02T01:19:46;1.58;;;1.00;;
56171;SDS011;42052;41.634;-0.946;2023-07-02T01:22:36;1.35;;;1.02;;
56171;SDS011;42052;41.634;-0.946;2023-07-02T01:25:23;2.05;;;1.08;;
56171;SDS011;42052;41.634;-0.946;2023-07-02T01:28:10;1.60;;;0.98;;
56171;SDS011;42052;41.634;-0.946;2023-07-02T01:30:59;2.30;;;1.05;;
56171;SDS011;42052;41.634;-0.946;2023-07-02T01:33:45;2.72;;;1.20;;
56171;SDS011;42052;41.634;-0.946;2023-07-02T01:36:31;2.67;;;1.10;;
56171;SDS011;42052;41.634;-0.946;2023-07-02T01:39:17;2.00;;;1.17;;
56171;SDS011;42052;41.634;-0.946;2023-07-02T01:42:07;2.47;;;1.05;;
56171;SDS011;42052;41.634;-0.946;2023-07-02T01:44:55;1.60;;;0.90;;
56171;SDS011;42052;41.634;-0.946;2023-07-02T01:47:41;1.95;;;1.08;;
56171;SDS011;42052;41.634;-0.946;2023-07-02T01:50:27;1.60;;;1.00;;
56171;SDS011;42052;41.634;-0.946;2023-07-02T01:53:13;1.50;;;1.10;;
56171;SDS011;42052;41.634;-0.946;2023-07-02T01:55:59;2.25;;;1.20;;
56171;SDS011;42052;41.634;-0.946;2023-07-02T01:58:45;1.50;;;1.00;;
56171;SDS011;42052;41.634;-0.946;2023-07-02T02:01:31;1.77;;;1.10;;
56171;SDS011;42052;41.634;-0.946;2023-07-02T02:04:18;1.70;;;1.05;;
56171;SDS011;42052;41.634;-0.946;2023-07-02T02:07:04;1.90;;;1.10;;
56171;SDS011;42052;41.634;-0.946;2023-07-02T02:09:50;1.50;;;1.27;;
56171;SDS011;42052;41.634;-0.946;2023-07-02T02:12:36;1.58;;;0.93;;
56171;SDS011;42052;41.634;-0.946;2023-07-02T02:15:22;2.03;;;1.30;;
56171;SDS011;42052;41.634;-0.946;2023-07-02T02:18:08;1.60;;;1.05;;
56171;SDS011;42052;41.634;-0.946;2023-07-02T02:20:55;2.83;;;1.08;;
56171;SDS011;42052;41.634;-0.946;2023-07-02T02:23:41;1.13;;;0.90;;
56171;SDS011;42052;41.634;-0.946;2023-07-02T02:26:27;1.48;;;1.10;;
56171;SDS011;42052;41.634;-0.946;2023-07-02T02:29:13;1.45;;;1.10;;
56171;SDS011;42052;41.634;-0.946;2023-07-02T02:31:59;1.52;;;0.80;;
56171;SDS011;42052;41.634;-0.946;2023-07-02T02:34:45;1.40;;;1.00;;
56171;SDS011;42052;41.634;-0.946;2023-07-02T02:37:32;1.73;;;1.15;;
56171;SDS011;42052;41.634;-0.946;2023-07-02T02:40:19;1.77;;;1.02;;
56171;SDS011;42052;41.634;-0.946;2023-07-02T02:43:05;1.65;;;1.20;;
56171;SDS011;42052;41.634;-0.946;2023-07-02T02:45:52;1.60;;;1.20;;
56171;SDS011;42052;41.634;-0.946;2023-07-02T02:48:38;1.27;;;1.10;;
56171;SDS011;42052;41.634;-0.946;2023-07-02T02:51:25;2.38;;;1.10;;
56171;SDS011;42052;41.634;-0.946;2023-07-02T02:54:11;1.45;;;1.20;;
56171;SDS011;42052;41.634;-0.946;2023-07-02T02:56:57;2.38;;;1.30;;
56171;SDS011;42052;41.634;-0.946;2023-07-02T02:59:43;1.60;;;1.08;;
56171;SDS011;42052;41.634;-0.946;2023-07-02T03:02:29;1.60;;;1.00;;
56171;SDS011;42052;41.634;-0.946;2023-07-02T03:05:15;2.17;;;1.17;;
56171;SDS011;42052;41.634;-0.946;2023-07-02T03:08:02;1.27;;;0.77;;
56171;SDS011;42052;41.634;-0.946;2023-07-02T03:10:48;1.33;;;0.93;;
56171;SDS011;42052;41.634;-0.946;2023-07-02T03:13:34;1.95;;;1.20;;
56171;SDS011;42052;41.634;-0.946;2023-07-02T03:16:20;1.30;;;1.08;;
56171;SDS011;42052;41.634;-0.946;2023-07-02T03:19:06;1.38;;;1.10;;
56171;SDS011;42052;41.634;-0.946;2023-07-02T03:21:53;1.15;;;0.90;;
56171;SDS011;42052;41.634;-0.946;2023-07-02T03:24:39;1.73;;;1.23;;
56171;SDS011;42052;41.634;-0.946;2023-07-02T03:27:25;1.65;;;1.20;;
56171;SDS011;42052;41.634;-0.946;2023-07-02T03:30:11;2.28;;;1.30;;
56171;SDS011;42052;41.634;-0.946;2023-07-02T03:32:57;1.38;;;1.02;;
56171;SDS011;42052;41.634;-0.946;2023-07-02T03:35:43;2.10;;;1.20;;
56171;SDS011;42052;41.634;-0.946;2023-07-02T03:38:29;2.40;;;1.30;;
56171;SDS011;42052;41.634;-0.946;2023-07-02T03:41:15;1.50;;;1.00;;
56171;SDS011;42052;41.634;-0.946;2023-07-02T03:44:02;1.48;;;1.10;;
56171;SDS011;42052;41.634;-0.946;2023-07-02T03:46:48;2.35;;;1.13;;
56171;SDS011;42052;41.634;-0.946;2023-07-02T03:49:35;2.13;;;1.20;;
56171;SDS011;42052;41.634;-0.946;2023-07-02T03:52:21;1.52;;;1.20;;
56171;SDS011;42052;41.634;-0.946;2023-07-02T03:55:07;2.17;;;1.15;;
56171;SDS011;42052;41.634;-0.946;2023-07-02T03:57:54;1.85;;;1.23;;
56171;SDS011;42052;41.634;-0.946;2023-07-02T04:00:40;1.77;;;1.10;;
56171;SDS011;42052;41.634;-0.946;2023-07-02T04:03:27;1.98;;;1.10;;
56171;SDS011;42052;41.634;-0.946;2023-07-02T04:06:13;2.00;;;1.13;;
56171;SDS011;42052;41.634;-0.946;2023-07-02T04:08:59;1.58;;;1.10;;
56171;SDS011;42052;41.634;-0.946;2023-07-02T04:11:45;1.30;;;1.05;;
56171;SDS011;42052;41.634;-0.946;2023-07-02T04:14:31;1.88;;;1.30;;
56171;SDS011;42052;41.634;-0.946;2023-07-02T04:17:17;1.52;;;1.00;;
56171;SDS011;42052;41.634;-0.946;2023-07-02T04:20:04;2.13;;;1.30;;
56171;SDS011;42052;41.634;-0.946;2023-07-02T04:22:51;1.60;;;1.25;;
56171;SDS011;42052;41.634;-0.946;2023-07-02T04:25:38;2.03;;;1.20;;
56171;SDS011;42052;41.634;-0.946;2023-07-02T04:28:24;1.40;;;1.10;;
56171;SDS011;42052;41.634;-0.946;2023-07-02T04:31:10;2.10;;;1.05;;
56171;SDS011;42052;41.634;-0.946;2023-07-02T04:33:56;1.52;;;1.10;;
56171;SDS011;42052;41.634;-0.946;2023-07-02T04:36:43;1.30;;;1.20;;
56171;SDS011;42052;41.634;-0.946;2023-07-02T04:39:29;3.35;;;1.30;;
56171;SDS011;42052;41.634;-0.946;2023-07-02T04:42:15;1.92;;;1.27;;
56171;SDS011;42052;41.634;-0.946;2023-07-02T04:45:01;1.42;;;1.20;;
56171;SDS011;42052;41.634;-0.946;2023-07-02T04:47:48;1.85;;;1.23;;
56171;SDS011;42052;41.634;-0.946;2023-07-02T04:50:34;2.08;;;1.40;;
56171;SDS011;42052;41.634;-0.946;2023-07-02T04:53:20;1.20;;;1.10;;
56171;SDS011;42052;41.634;-0.946;2023-07-02T04:56:06;1.77;;;1.20;;
56171;SDS011;42052;41.634;-0.946;2023-07-02T04:58:53;1.73;;;1.25;;
56171;SDS011;42052;41.634;-0.946;2023-07-02T05:01:39;1.50;;;1.20;;
56171;SDS011;42052;41.634;-0.946;2023-07-02T05:04:25;1.35;;;1.25;;
56171;SDS011;42052;41.634;-0.946;2023-07-02T05:07:11;1.88;;;1.50;;
56171;SDS011;42052;41.634;-0.946;2023-07-02T05:09:57;1.20;;;1.10;;
56171;SDS011;42052;41.634;-0.946;2023-07-02T05:12:43;1.60;;;1.20;;
56171;SDS011;42052;41.634;-0.946;2023-07-02T05:15:29;1.63;;;1.23;;
56171;SDS011;42052;41.634;-0.946;2023-07-02T05:18:15;1.30;;;1.20;;
56171;SDS011;42052;41.634;-0.946;2023-07-02T05:21:01;1.42;;;1.00;;
56171;SDS011;42052;41.634;-0.946;2023-07-02T05:23:47;1.77;;;1.20;;
56171;SDS011;42052;41.634;-0.946;2023-07-02T05:26:34;1.73;;;1.20;;
56171;SDS011;42052;41.634;-0.946;2023-07-02T05:29:20;1.70;;;1.20;;
56171;SDS011;42052;41.634;-0.946;2023-07-02T05:32:06;1.58;;;1.30;;
56171;SDS011;42052;41.634;-0.946;2023-07-02T05:34:52;1.25;;;1.15;;
56171;SDS011;42052;41.634;-0.946;2023-07-02T05:37:38;1.58;;;1.40;;
56171;SDS011;42052;41.634;-0.946;2023-07-02T05:40:24;1.70;;;1.15;;
56171;SDS011;42052;41.634;-0.946;2023-07-02T05:43:11;1.48;;;1.27;;
56171;SDS011;42052;41.634;-0.946;2023-07-02T05:45:58;2.03;;;1.23;;
56171;SDS011;42052;41.634;-0.946;2023-07-02T05:48:47;1.45;;;1.05;;
56171;SDS011;42052;41.634;-0.946;2023-07-02T05:51:33;1.30;;;1.10;;
56171;SDS011;42052;41.634;-0.946;2023-07-02T05:54:20;1.70;;;1.30;;
56171;SDS011;42052;41.634;-0.946;2023-07-02T05:57:06;1.23;;;1.10;;
56171;SDS011;42052;41.634;-0.946;2023-07-02T05:59:52;1.45;;;1.15;;
56171;SDS011;42052;41.634;-0.946;2023-07-02T06:02:38;1.30;;;1.20;;
56171;SDS011;42052;41.634;-0.946;2023-07-02T06:05:24;2.08;;;1.48;;
56171;SDS011;42052;41.634;-0.946;2023-07-02T06:08:10;1.67;;;1.33;;
56171;SDS011;42052;41.634;-0.946;2023-07-02T06:10:56;1.55;;;1.20;;
56171;SDS011;42052;41.634;-0.946;2023-07-02T06:13:42;1.33;;;1.23;;
56171;SDS011;42052;41.634;-0.946;2023-07-02T06:16:28;2.13;;;1.50;;
56171;SDS011;42052;41.634;-0.946;2023-07-02T06:19:14;2.05;;;1.30;;
56171;SDS011;42052;41.634;-0.946;2023-07-02T06:22:00;1.33;;;1.20;;
56171;SDS011;42052;41.634;-0.946;2023-07-02T06:24:47;1.38;;;1.23;;
56171;SDS011;42052;41.634;-0.946;2023-07-02T06:27:33;1.80;;;1.20;;
56171;SDS011;42052;41.634;-0.946;2023-07-02T06:30:19;1.45;;;1.10;;
56171;SDS011;42052;41.634;-0.946;2023-07-02T06:33:05;1.95;;;1.10;;
56171;SDS011;42052;41.634;-0.946;2023-07-02T06:35:51;1.38;;;1.15;;
56171;SDS011;42052;41.634;-0.946;2023-07-02T06:38:37;1.48;;;1.25;;
56171;SDS011;42052;41.634;-0.946;2023-07-02T06:41:23;1.88;;;1.48;;
56171;SDS011;42052;41.634;-0.946;2023-07-02T06:44:09;1.95;;;1.30;;
56171;SDS011;42052;41.634;-0.946;2023-07-02T06:46:55;1.50;;;1.30;;
56171;SDS011;42052;41.634;-0.946;2023-07-02T06:49:41;1.83;;;1.30;;
56171;SDS011;42052;41.634;-0.946;2023-07-02T06:52:27;1.67;;;1.45;;
56171;SDS011;42052;41.634;-0.946;2023-07-02T06:55:13;1.40;;;1.30;;
56171;SDS011;42052;41.634;-0.946;2023-07-02T06:58:00;1.38;;;1.10;;
56171;SDS011;42052;41.634;-0.946;2023-07-02T07:00:46;2.17;;;1.20;;
56171;SDS011;42052;41.634;-0.946;2023-07-02T07:03:32;1.65;;;1.30;;
56171;SDS011;42052;41.634;-0.946;2023-07-02T07:06:18;1.55;;;1.30;;
56171;SDS011;42052;41.634;-0.946;2023-07-02T07:09:05;1.85;;;1.20;;
56171;SDS011;42052;41.634;-0.946;2023-07-02T07:11:51;1.35;;;1.20;;
56171;SDS011;42052;41.634;-0.946;2023-07-02T07:14:37;1.50;;;1.20;;
56171;SDS011;42052;41.634;-0.946;2023-07-02T07:17:24;1.55;;;1.23;;
56171;SDS011;42052;41.634;-0.946;2023-07-02T07:20:10;1.42;;;1.27;;
56171;SDS011;42052;41.634;-0.946;2023-07-02T07:22:57;1.33;;;1.10;;
56171;SDS011;42052;41.634;-0.946;2023-07-02T07:25:43;1.30;;;1.20;;
56171;SDS011;42052;41.634;-0.946;2023-07-02T07:28:29;1.55;;;1.20;;
56171;SDS011;42052;41.634;-0.946;2023-07-02T07:31:15;1.67;;;1.27;;
56171;SDS011;42052;41.634;-0.946;2023-07-02T07:34:01;2.40;;;1.40;;
56171;SDS011;42052;41.634;-0.946;2023-07-02T07:36:47;1.50;;;1.20;;
56171;SDS011;42052;41.634;-0.946;2023-07-02T07:39:33;2.35;;;1.13;;
56171;SDS011;42052;41.634;-0.946;2023-07-02T07:42:20;1.75;;;1.50;;
56171;SDS011;42052;41.634;-0.946;2023-07-02T07:45:06;1.67;;;1.10;;
56171;SDS011;42052;41.634;-0.946;2023-07-02T07:47:53;1.70;;;1.20;;
56171;SDS011;42052;41.634;-0.946;2023-07-02T07:50:39;1.40;;;1.23;;
56171;SDS011;42052;41.634;-0.946;2023-07-02T07:53:25;1.45;;;1.20;;
56171;SDS011;42052;41.634;-0.946;2023-07-02T07:56:11;2.03;;;1.40;;
56171;SDS011;42052;41.634;-0.946;2023-07-02T07:58:57;1.38;;;1.23;;
56171;SDS011;42052;41.634;-0.946;2023-07-02T08:01:43;1.52;;;1.42;;
56171;SDS011;42052;41.634;-0.946;2023-07-02T08:04:31;1.33;;;1.23;;
56171;SDS011;42052;41.634;-0.946;2023-07-02T08:07:17;1.95;;;1.33;;
56171;SDS011;42052;41.634;-0.946;2023-07-02T08:10:04;2.17;;;1.30;;
56171;SDS011;42052;41.634;-0.946;2023-07-02T08:12:51;1.23;;;1.10;;
56171;SDS011;42052;41.634;-0.946;2023-07-02T08:15:40;1.58;;;1.10;;
56171;SDS011;42052;41.634;-0.946;2023-07-02T08:18:26;2.10;;;1.30;;
56171;SDS011;42052;41.634;-0.946;2023-07-02T08:21:12;1.35;;;1.10;;
56171;SDS011;42052;41.634;-0.946;2023-07-02T08:23:58;1.70;;;1.10;;
56171;SDS011;42052;41.634;-0.946;2023-07-02T08:26:44;1.50;;;1.30;;
56171;SDS011;42052;41.634;-0.946;2023-07-02T08:29:32;1.38;;;1.13;;
56171;SDS011;42052;41.634;-0.946;2023-07-02T08:32:18;1.95;;;1.17;;
56171;SDS011;42052;41.634;-0.946;2023-07-02T08:35:05;1.30;;;1.20;;
56171;SDS011;42052;41.634;-0.946;2023-07-02T08:37:51;1.30;;;1.20;;
56171;SDS011;42052;41.634;-0.946;2023-07-02T08:40:37;1.42;;;1.10;;
56171;SDS011;42052;41.634;-0.946;2023-07-02T08:43:23;1.40;;;1.17;;
56171;SDS011;42052;41.634;-0.946;2023-07-02T08:46:12;2.80;;;1.23;;
56171;SDS011;42052;41.634;-0.946;2023-07-02T08:49:00;1.50;;;1.35;;
56171;SDS011;42052;41.634;-0.946;2023-07-02T08:51:47;1.60;;;1.20;;
56171;SDS011;42052;41.634;-0.946;2023-07-02T08:54:33;1.15;;;1.05;;
56171;SDS011;42052;41.634;-0.946;2023-07-02T08:57:20;1.10;;;1.00;;
56171;SDS011;42052;41.634;-0.946;2023-07-02T09:00:09;1.08;;;0.98;;
56171;SDS011;42052;41.634;-0.946;2023-07-02T09:02:56;1.10;;;1.00;;
56171;SDS011;42052;41.634;-0.946;2023-07-02T09:05:49;1.40;;;1.10;;
56171;SDS011;42052;41.634;-0.946;2023-07-02T09:08:38;1.45;;;1.25;;
56171;SDS011;42052;41.634;-0.946;2023-07-02T09:11:24;1.33;;;1.23;;
56171;SDS011;42052;41.634;-0.946;2023-07-02T09:14:10;1.10;;;1.00;;
56171;SDS011;42052;41.634;-0.946;2023-07-02T09:19:50;1.45;;;1.10;;
56171;SDS011;42052;41.634;-0.946;2023-07-02T09:22:37;1.25;;;1.08;;
56171;SDS011;42052;41.634;-0.946;2023-07-02T09:25:36;1.30;;;1.20;;
56171;SDS011;42052;41.634;-0.946;2023-07-02T09:28:23;0.80;;;0.80;;
56171;SDS011;42052;41.634;-0.946;2023-07-02T09:31:09;1.30;;;1.20;;
56171;SDS011;42052;41.634;-0.946;2023-07-02T09:34:01;1.58;;;1.15;;
56171;SDS011;42052;41.634;-0.946;2023-07-02T09:36:48;2.42;;;1.00;;
56171;SDS011;42052;41.634;-0.946;2023-07-02T09:39:34;2.05;;;1.10;;
56171;SDS011;42052;41.634;-0.946;2023-07-02T09:42:21;1.30;;;1.10;;
56171;SDS011;42052;41.634;-0.946;2023-07-02T09:45:08;1.30;;;1.00;;
56171;SDS011;42052;41.634;-0.946;2023-07-02T09:47:55;1.50;;;1.10;;
56171;SDS011;42052;41.634;-0.946;2023-07-02T09:50:44;1.10;;;1.00;;
56171;SDS011;42052;41.634;-0.946;2023-07-02T09:53:31;1.27;;;1.10;;
56171;SDS011;42052;41.634;-0.946;2023-07-02T09:56:17;1.08;;;0.90;;
56171;SDS011;42052;41.634;-0.946;2023-07-02T09:59:06;1.13;;;1.02;;
56171;SDS011;42052;41.634;-0.946;2023-07-02T10:01:52;0.90;;;0.90;;
56171;SDS011;42052;41.634;-0.946;2023-07-02T10:04:40;1.10;;;1.00;;
56171;SDS011;42052;41.634;-0.946;2023-07-02T10:07:28;1.77;;;1.20;;
56171;SDS011;42052;41.634;-0.946;2023-07-02T10:10:25;1.00;;;0.90;;
56171;SDS011;42052;41.634;-0.946;2023-07-02T10:13:16;1.20;;;1.10;;
56171;SDS011;42052;41.634;-0.946;2023-07-02T10:16:12;1.00;;;0.90;;
56171;SDS011;42052;41.634;-0.946;2023-07-02T10:19:12;1.25;;;0.90;;
56171;SDS011;42052;41.634;-0.946;2023-07-02T10:22:02;1.05;;;0.95;;
56171;SDS011;42052;41.634;-0.946;2023-07-02T10:24:53;1.20;;;1.02;;
56171;SDS011;42052;41.634;-0.946;2023-07-02T10:27:45;1.08;;;0.90;;
56171;SDS011;42052;41.634;-0.946;2023-07-02T10:30:32;1.65;;;1.08;;
56171;SDS011;42052;41.634;-0.946;2023-07-02T10:33:19;0.80;;;0.75;;
56171;SDS011;42052;41.634;-0.946;2023-07-02T10:36:06;1.30;;;1.00;;
56171;SDS011;42052;41.634;-0.946;2023-07-02T10:39:02;1.27;;;1.00;;
56171;SDS011;42052;41.634;-0.946;2023-07-02T10:41:51;1.35;;;0.95;;
56171;SDS011;42052;41.634;-0.946;2023-07-02T10:44:48;0.73;;;0.73;;
56171;SDS011;42052;41.634;-0.946;2023-07-02T10:47:38;0.98;;;0.70;;
56171;SDS011;42052;41.634;-0.946;2023-07-02T10:50:26;1.10;;;0.90;;
56171;SDS011;42052;41.634;-0.946;2023-07-02T10:53:15;1.13;;;0.90;;
56171;SDS011;42052;41.634;-0.946;2023-07-02T10:56:02;1.35;;;0.90;;
56171;SDS011;42052;41.634;-0.946;2023-07-02T10:58:48;1.15;;;0.80;;
56171;SDS011;42052;41.634;-0.946;2023-07-02T11:01:37;0.90;;;0.90;;
56171;SDS011;42052;41.634;-0.946;2023-07-02T11:04:23;1.00;;;0.90;;
56171;SDS011;42052;41.634;-0.946;2023-07-02T11:07:10;0.82;;;0.75;;
56171;SDS011;42052;41.634;-0.946;2023-07-02T11:09:57;1.38;;;1.00;;
56171;SDS011;42052;41.634;-0.946;2023-07-02T11:12:43;1.75;;;0.90;;
56171;SDS011;42052;41.634;-0.946;2023-07-02T11:15:35;1.00;;;0.82;;
56171;SDS011;42052;41.634;-0.946;2023-07-02T11:18:21;1.08;;;0.90;;
56171;SDS011;42052;41.634;-0.946;2023-07-02T11:21:10;0.95;;;0.85;;
56171;SDS011;42052;41.634;-0.946;2023-07-02T11:24:03;1.40;;;0.88;;
56171;SDS011;42052;41.634;-0.946;2023-07-02T11:26:49;0.85;;;0.80;;
56171;SDS011;42052;41.634;-0.946;2023-07-02T11:29:35;0.82;;;0.80;;
56171;SDS011;42052;41.634;-0.946;2023-07-02T11:32:22;0.93;;;0.85;;
56171;SDS011;42052;41.634;-0.946;2023-07-02T11:35:08;1.52;;;1.00;;
56171;SDS011;42052;41.634;-0.946;2023-07-02T11:37:54;0.95;;;0.80;;
56171;SDS011;42052;41.634;-0.946;2023-07-02T11:40:40;1.20;;;1.00;;
56171;SDS011;42052;41.634;-0.946;2023-07-02T11:43:26;1.27;;;0.63;;
56171;SDS011;42052;41.634;-0.946;2023-07-02T11:46:13;1.20;;;0.90;;
56171;SDS011;42052;41.634;-0.946;2023-07-02T11:49:00;1.00;;;0.90;;
56171;SDS011;42052;41.634;-0.946;2023-07-02T11:51:46;0.80;;;0.80;;
56171;SDS011;42052;41.634;-0.946;2023-07-02T11:54:34;0.90;;;0.80;;
56171;SDS011;42052;41.634;-0.946;2023-07-02T11:57:20;1.00;;;0.70;;
56171;SDS011;42052;41.634;-0.946;2023-07-02T12:00:08;0.82;;;0.77;;
56171;SDS011;42052;41.634;-0.946;2023-07-02T12:02:54;0.80;;;0.70;;
56171;SDS011;42052;41.634;-0.946;2023-07-02T12:05:40;1.27;;;0.73;;
56171;SDS011;42052;41.634;-0.946;2023-07-02T12:08:26;0.90;;;0.77;;
56171;SDS011;42052;41.634;-0.946;2023-07-02T12:11:12;0.93;;;0.80;;
56171;SDS011;42052;41.634;-0.946;2023-07-02T12:13:58;1.08;;;0.82;;
56171;SDS011;42052;41.634;-0.946;2023-07-02T12:16:45;0.80;;;0.70;;
56171;SDS011;42052;41.634;-0.946;2023-07-02T12:19:31;0.90;;;0.75;;
56171;SDS011;42052;41.634;-0.946;2023-07-02T12:22:17;1.27;;;0.70;;
56171;SDS011;42052;41.634;-0.946;2023-07-02T12:25:04;0.85;;;0.80;;
56171;SDS011;42052;41.634;-0.946;2023-07-02T12:27:50;0.70;;;0.68;;
56171;SDS011;42052;41.634;-0.946;2023-07-02T12:30:37;0.73;;;0.70;;
56171;SDS011;42052;41.634;-0.946;2023-07-02T12:33:23;0.60;;;0.60;;
56171;SDS011;42052;41.634;-0.946;2023-07-02T12:36:09;1.25;;;0.70;;
56171;SDS011;42052;41.634;-0.946;2023-07-02T12:38:55;0.75;;;0.73;;
56171;SDS011;42052;41.634;-0.946;2023-07-02T12:41:41;1.08;;;0.80;;
56171;SDS011;42052;41.634;-0.946;2023-07-02T12:44:27;0.68;;;0.65;;
56171;SDS011;42052;41.634;-0.946;2023-07-02T12:47:13;1.13;;;0.80;;
56171;SDS011;42052;41.634;-0.946;2023-07-02T12:49:59;1.10;;;0.77;;
56171;SDS011;42052;41.634;-0.946;2023-07-02T12:52:45;1.17;;;0.82;;
56171;SDS011;42052;41.634;-0.946;2023-07-02T12:55:31;1.38;;;0.70;;
56171;SDS011;42052;41.634;-0.946;2023-07-02T12:58:17;0.77;;;0.70;;
56171;SDS011;42052;41.634;-0.946;2023-07-02T13:01:04;0.95;;;0.80;;
56171;SDS011;42052;41.634;-0.946;2023-07-02T13:03:50;0.95;;;0.80;;
56171;SDS011;42052;41.634;-0.946;2023-07-02T13:06:36;0.82;;;0.70;;
56171;SDS011;42052;41.634;-0.946;2023-07-02T13:09:25;1.13;;;0.82;;
56171;SDS011;42052;41.634;-0.946;2023-07-02T13:12:11;0.85;;;0.70;;
56171;SDS011;42052;41.634;-0.946;2023-07-02T13:14:58;1.17;;;0.90;;
56171;SDS011;42052;41.634;-0.946;2023-07-02T13:17:44;1.65;;;1.10;;
56171;SDS011;42052;41.634;-0.946;2023-07-02T13:20:30;0.90;;;0.70;;
56171;SDS011;42052;41.634;-0.946;2023-07-02T13:23:16;1.20;;;0.77;;
56171;SDS011;42052;41.634;-0.946;2023-07-02T13:26:02;0.98;;;0.82;;
56171;SDS011;42052;41.634;-0.946;2023-07-02T13:28:48;1.10;;;0.80;;
56171;SDS011;42052;41.634;-0.946;2023-07-02T13:31:34;1.20;;;0.82;;
56171;SDS011;42052;41.634;-0.946;2023-07-02T13:34:20;0.77;;;0.70;;
56171;SDS011;42052;41.634;-0.946;2023-07-02T13:37:06;0.90;;;0.77;;
56171;SDS011;42052;41.634;-0.946;2023-07-02T13:39:54;1.13;;;0.80;;
56171;SDS011;42052;41.634;-0.946;2023-07-02T13:42:40;0.93;;;0.70;;
56171;SDS011;42052;41.634;-0.946;2023-07-02T13:45:27;0.80;;;0.70;;
56171;SDS011;42052;41.634;-0.946;2023-07-02T13:48:13;1.20;;;0.80;;
56171;SDS011;42052;41.634;-0.946;2023-07-02T13:50:59;0.85;;;0.65;;
56171;SDS011;42052;41.634;-0.946;2023-07-02T13:53:46;0.55;;;0.52;;
56171;SDS011;42052;41.634;-0.946;2023-07-02T13:56:32;0.98;;;0.70;;
56171;SDS011;42052;41.634;-0.946;2023-07-02T13:59:19;0.80;;;0.73;;
56171;SDS011;42052;41.634;-0.946;2023-07-02T14:02:05;0.50;;;0.50;;
56171;SDS011;42052;41.634;-0.946;2023-07-02T14:04:51;1.05;;;0.77;;
56171;SDS011;42052;41.634;-0.946;2023-07-02T14:07:38;0.80;;;0.70;;
56171;SDS011;42052;41.634;-0.946;2023-07-02T14:10:24;1.05;;;0.75;;
56171;SDS011;42052;41.634;-0.946;2023-07-02T14:13:10;1.08;;;0.90;;
56171;SDS011;42052;41.634;-0.946;2023-07-02T14:15:56;0.60;;;0.60;;
56171;SDS011;42052;41.634;-0.946;2023-07-02T14:18:42;1.67;;;0.63;;
56171;SDS011;42052;41.634;-0.946;2023-07-02T14:21:28;1.10;;;0.70;;
56171;SDS011;42052;41.634;-0.946;2023-07-02T14:24:14;0.88;;;0.63;;
56171;SDS011;42052;41.634;-0.946;2023-07-02T14:27:01;0.85;;;0.70;;
56171;SDS011;42052;41.634;-0.946;2023-07-02T14:29:47;0.75;;;0.60;;
56171;SDS011;42052;41.634;-0.946;2023-07-02T14:32:34;1.25;;;0.80;;
56171;SDS011;42052;41.634;-0.946;2023-07-02T14:35:20;0.68;;;0.68;;
56171;SDS011;42052;41.634;-0.946;2023-07-02T14:38:10;0.70;;;0.70;;
56171;SDS011;42052;41.634;-0.946;2023-07-02T14:40:56;0.90;;;0.60;;
56171;SDS011;42052;41.634;-0.946;2023-07-02T14:43:42;0.80;;;0.70;;
56171;SDS011;42052;41.634;-0.946;2023-07-02T14:46:28;0.60;;;0.60;;
56171;SDS011;42052;41.634;-0.946;2023-07-02T14:49:14;1.13;;;0.70;;
56171;SDS011;42052;41.634;-0.946;2023-07-02T14:52:01;0.80;;;0.73;;
56171;SDS011;42052;41.634;-0.946;2023-07-02T14:54:47;2.35;;;0.60;;
56171;SDS011;42052;41.634;-0.946;2023-07-02T14:57:33;1.17;;;0.70;;
56171;SDS011;42052;41.634;-0.946;2023-07-02T15:00:19;0.60;;;0.60;;
56171;SDS011;42052;41.634;-0.946;2023-07-02T15:03:05;0.73;;;0.60;;
56171;SDS011;42052;41.634;-0.946;2023-07-02T15:05:51;0.60;;;0.60;;
56171;SDS011;42052;41.634;-0.946;2023-07-02T15:08:38;0.50;;;0.50;;
56171;SDS011;42052;41.634;-0.946;2023-07-02T15:11:24;0.88;;;0.68;;
56171;SDS011;42052;41.634;-0.946;2023-07-02T15:14:10;0.70;;;0.50;;
56171;SDS011;42052;41.634;-0.946;2023-07-02T15:16:56;0.57;;;0.50;;
56171;SDS011;42052;41.634;-0.946;2023-07-02T15:19:42;0.52;;;0.52;;
56171;SDS011;42052;41.634;-0.946;2023-07-02T15:22:28;0.70;;;0.60;;
56171;SDS011;42052;41.634;-0.946;2023-07-02T15:25:15;0.50;;;0.50;;
56171;SDS011;42052;41.634;-0.946;2023-07-02T15:28:01;0.73;;;0.70;;
56171;SDS011;42052;41.634;-0.946;2023-07-02T15:31:07;0.80;;;0.70;;
56171;SDS011;42052;41.634;-0.946;2023-07-02T15:33:55;0.82;;;0.68;;
56171;SDS011;42052;41.634;-0.946;2023-07-02T15:36:41;0.60;;;0.60;;
56171;SDS011;42052;41.634;-0.946;2023-07-02T15:39:27;0.60;;;0.60;;
56171;SDS011;42052;41.634;-0.946;2023-07-02T15:42:18;0.82;;;0.40;;
56171;SDS011;42052;41.634;-0.946;2023-07-02T15:45:04;0.90;;;0.70;;
56171;SDS011;42052;41.634;-0.946;2023-07-02T15:47:52;1.15;;;0.70;;
56171;SDS011;42052;41.634;-0.946;2023-07-02T15:50:38;0.77;;;0.70;;
56171;SDS011;42052;41.634;-0.946;2023-07-02T15:53:24;0.70;;;0.60;;
56171;SDS011;42052;41.634;-0.946;2023-07-02T15:56:10;0.82;;;0.50;;
56171;SDS011;42052;41.634;-0.946;2023-07-02T15:58:56;0.60;;;0.52;;
56171;SDS011;42052;41.634;-0.946;2023-07-02T16:01:42;0.50;;;0.50;;
56171;SDS011;42052;41.634;-0.946;2023-07-02T16:04:32;0.55;;;0.52;;
56171;SDS011;42052;41.634;-0.946;2023-07-02T16:07:18;0.70;;;0.60;;
56171;SDS011;42052;41.634;-0.946;2023-07-02T16:10:04;0.95;;;0.63;;
56171;SDS011;42052;41.634;-0.946;2023-07-02T16:12:51;0.55;;;0.50;;
56171;SDS011;42052;41.634;-0.946;2023-07-02T16:15:38;0.50;;;0.50;;
56171;SDS011;42052;41.634;-0.946;2023-07-02T16:18:25;0.85;;;0.43;;
56171;SDS011;42052;41.634;-0.946;2023-07-02T16:21:11;0.85;;;0.60;;
56171;SDS011;42052;41.634;-0.946;2023-07-02T16:23:57;0.90;;;0.60;;
56171;SDS011;42052;41.634;-0.946;2023-07-02T16:26:43;1.08;;;0.47;;
56171;SDS011;42052;41.634;-0.946;2023-07-02T16:29:29;0.70;;;0.50;;
56171;SDS011;42052;41.634;-0.946;2023-07-02T16:32:16;0.70;;;0.63;;